sensor_id;sensor_type;location;lat;lon;timestamp;temperature;humidity
11087;DHT22;5597;47.588;9.642;2023-04-03T00:00:05;5.70;99.90
11087;DHT22;5597;47.588;9.642;2023-04-03T00:02:32;5.60;99.90
11087;DHT22;5597;47.588;9.642;2023-04-03T00:04:58;5.60;99.90
11087;DHT22;5597;47.588;9.642;2023-04-03T00:07:23;5.50;99.90
11087;DHT22;5597;47.588;9.642;2023-04-03T00:09:49;5.50;99.90
11087;DHT22;5597;47.588;9.642;2023-04-03T00:12:15;5.40;99.90
11087;DHT22;5597;47.588;9.642;2023-04-03T00:14:41;5.40;99.90
11087;DHT22;5597;47.588;9.642;2023-04-03T00:17:07;5.40;99.90
11087;DHT22;5597;47.588;9.642;2023-04-03T00:19:32;5.40;99.90
11087;DHT22;5597;47.588;9.642;2023-04-03T00:21:58;5.30;99.90
11087;DHT22;5597;47.588;9.642;2023-04-03T00:24:24;5.30;99.90
11087;DHT22;5597;47.588;9.642;2023-04-03T00:26:50;5.20;99.90
11087;DHT22;5597;47.588;9.642;2023-04-03T00:29:18;5.20;99.90
11087;DHT22;5597;47.588;9.642;2023-04-03T00:31:44;5.20;99.90
11087;DHT22;5597;47.588;9.642;2023-04-03T00:34:10;5.10;99.90
11087;DHT22;5597;47.588;9.642;2023-04-03T00:36:36;5.00;99.90
11087;DHT22;5597;47.588;9.642;2023-04-03T00:39:02;5.00;99.90
11087;DHT22;5597;47.588;9.642;2023-04-03T00:41:28;5.00;99.90
11087;DHT22;5597;47.588;9.642;2023-04-03T00:43:53;4.90;99.90
11087;DHT22;5597;47.588;9.642;2023-04-03T00:46:19;4.90;99.90
11087;DHT22;5597;47.588;9.642;2023-04-03T00:48:47;4.90;99.90
11087;DHT22;5597;47.588;9.642;2023-04-03T00:51:19;4.90;99.90
11087;DHT22;5597;47.588;9.642;2023-04-03T00:53:53;4.80;99.90
11087;DHT22;5597;47.588;9.642;2023-04-03T00:56:24;4.80;99.90
11087;DHT22;5597;47.588;9.642;2023-04-03T00:59:06;4.60;99.90
11087;DHT22;5597;47.588;9.642;2023-04-03T01:01:33;4.60;99.90
11087;DHT22;5597;47.588;9.642;2023-04-03T01:04:00;4.50;99.90
11087;DHT22;5597;47.588;9.642;2023-04-03T01:06:31;4.40;99.90
11087;DHT22;5597;47.588;9.642;2023-04-03T01:08:59;4.30;99.90
11087;DHT22;5597;47.588;9.642;2023-04-03T01:11:25;4.20;99.90
11087;DHT22;5597;47.588;9.642;2023-04-03T01:13:52;4.20;99.90
11087;DHT22;5597;47.588;9.642;2023-04-03T01:16:18;4.10;99.90
11087;DHT22;5597;47.588;9.642;2023-04-03T01:18:45;4.10;99.90
11087;DHT22;5597;47.588;9.642;2023-04-03T01:26:21;4.00;99.90
11087;DHT22;5597;47.588;9.642;2023-04-03T01:28:46;3.90;99.90
11087;DHT22;5597;47.588;9.642;2023-04-03T01:31:29;3.90;99.90
11087;DHT22;5597;47.588;9.642;2023-04-03T01:33:57;3.80;99.90
11087;DHT22;5597;47.588;9.642;2023-04-03T01:36:26;3.80;99.90
11087;DHT22;5597;47.588;9.642;2023-04-03T01:38:54;3.70;99.90
11087;DHT22;5597;47.588;9.642;2023-04-03T01:41:20;3.70;99.90
11087;DHT22;5597;47.588;9.642;2023-04-03T01:43:49;3.60;99.90
11087;DHT22;5597;47.588;9.642;2023-04-03T01:46:18;3.60;99.90
11087;DHT22;5597;47.588;9.642;2023-04-03T01:48:45;3.50;99.90
11087;DHT22;5597;47.588;9.642;2023-04-03T01:51:11;3.50;99.90
11087;DHT22;5597;47.588;9.642;2023-04-03T01:53:37;3.40;99.90
11087;DHT22;5597;47.588;9.642;2023-04-03T01:56:03;3.40;99.90
11087;DHT22;5597;47.588;9.642;2023-04-03T01:58:29;3.30;99.90
11087;DHT22;5597;47.588;9.642;2023-04-03T02:00:55;3.30;99.90
11087;DHT22;5597;47.588;9.642;2023-04-03T02:03:21;3.30;99.90
11087;DHT22;5597;47.588;9.642;2023-04-03T02:05:47;3.20;99.90
11087;DHT22;5597;47.588;9.642;2023-04-03T02:08:13;3.30;99.90
11087;DHT22;5597;47.588;9.642;2023-04-03T02:10:39;3.20;99.90
11087;DHT22;5597;47.588;9.642;2023-04-03T02:13:05;3.20;99.90
11087;DHT22;5597;47.588;9.642;2023-04-03T02:15:31;3.20;99.90
11087;DHT22;5597;47.588;9.642;2023-04-03T02:17:57;3.20;99.90
11087;DHT22;5597;47.588;9.642;2023-04-03T02:20:22;3.10;99.90
11087;DHT22;5597;47.588;9.642;2023-04-03T02:22:48;3.10;99.90
11087;DHT22;5597;47.588;9.642;2023-04-03T02:25:14;3.10;99.90
11087;DHT22;5597;47.588;9.642;2023-04-03T02:27:40;3.10;99.90
11087;DHT22;5597;47.588;9.642;2023-04-03T02:30:06;3.10;99.90
11087;DHT22;5597;47.588;9.642;2023-04-03T02:32:32;3.10;99.90
11087;DHT22;5597;47.588;9.642;2023-04-03T02:34:58;3.00;99.90
11087;DHT22;5597;47.588;9.642;2023-04-03T02:37:23;3.00;99.90
11087;DHT22;5597;47.588;9.642;2023-04-03T02:39:49;3.10;99.90
11087;DHT22;5597;47.588;9.642;2023-04-03T02:42:15;3.00;99.90
11087;DHT22;5597;47.588;9.642;2023-04-03T02:44:41;3.00;99.90
11087;DHT22;5597;47.588;9.642;2023-04-03T02:47:07;2.90;99.90
11087;DHT22;5597;47.588;9.642;2023-04-03T02:49:32;2.90;99.90
11087;DHT22;5597;47.588;9.642;2023-04-03T02:51:58;2.90;99.90
11087;DHT22;5597;47.588;9.642;2023-04-03T02:54:24;2.90;99.90
11087;DHT22;5597;47.588;9.642;2023-04-03T02:56:53;2.80;99.90
11087;DHT22;5597;47.588;9.642;2023-04-03T02:59:18;2.80;99.90
11087;DHT22;5597;47.588;9.642;2023-04-03T03:01:44;2.80;99.90
11087;DHT22;5597;47.588;9.642;2023-04-03T03:04:10;2.80;99.90
11087;DHT22;5597;47.588;9.642;2023-04-03T03:06:35;2.70;99.90
11087;DHT22;5597;47.588;9.642;2023-04-03T03:09:01;2.70;99.90
11087;DHT22;5597;47.588;9.642;2023-04-03T03:11:27;2.70;99.90
11087;DHT22;5597;47.588;9.642;2023-04-03T03:13:52;2.70;99.90
11087;DHT22;5597;47.588;9.642;2023-04-03T03:16:18;2.70;99.90
11087;DHT22;5597;47.588;9.642;2023-04-03T03:18:44;2.80;99.90
11087;DHT22;5597;47.588;9.642;2023-04-03T03:21:10;2.70;99.90
11087;DHT22;5597;47.588;9.642;2023-04-03T03:23:36;2.70;99.90
11087;DHT22;5597;47.588;9.642;2023-04-03T03:26:04;2.70;99.90
11087;DHT22;5597;47.588;9.642;2023-04-03T03:28:31;2.60;99.90
11087;DHT22;5597;47.588;9.642;2023-04-03T03:30:58;2.60;99.90
11087;DHT22;5597;47.588;9.642;2023-04-03T03:33:25;2.60;99.90
11087;DHT22;5597;47.588;9.642;2023-04-03T03:35:52;2.50;99.90
11087;DHT22;5597;47.588;9.642;2023-04-03T03:38:18;2.60;99.90
11087;DHT22;5597;47.588;9.642;2023-04-03T03:40:44;2.50;99.90
11087;DHT22;5597;47.588;9.642;2023-04-03T03:43:10;2.50;99.90
11087;DHT22;5597;47.588;9.642;2023-04-03T03:45:35;2.60;99.90
11087;DHT22;5597;47.588;9.642;2023-04-03T03:48:03;2.50;99.90
11087;DHT22;5597;47.588;9.642;2023-04-03T03:50:28;2.50;99.90
11087;DHT22;5597;47.588;9.642;2023-04-03T03:52:54;2.50;99.90
11087;DHT22;5597;47.588;9.642;2023-04-03T03:55:20;2.50;99.90
11087;DHT22;5597;47.588;9.642;2023-04-03T03:57:46;2.50;99.90
11087;DHT22;5597;47.588;9.642;2023-04-03T04:00:12;2.50;99.90
11087;DHT22;5597;47.588;9.642;2023-04-03T04:02:37;2.50;99.90
11087;DHT22;5597;47.588;9.642;2023-04-03T04:05:03;2.50;99.90
11087;DHT22;5597;47.588;9.642;2023-04-03T04:07:29;2.50;99.90
11087;DHT22;5597;47.588;9.642;2023-04-03T04:09:55;2.40;99.90
11087;DHT22;5597;47.588;9.642;2023-04-03T04:12:20;2.50;99.90
11087;DHT22;5597;47.588;9.642;2023-04-03T04:14:47;2.50;99.90
11087;DHT22;5597;47.588;9.642;2023-04-03T04:17:13;2.50;99.90
11087;DHT22;5597;47.588;9.642;2023-04-03T04:19:39;2.50;99.90
11087;DHT22;5597;47.588;9.642;2023-04-03T04:22:05;2.50;99.90
11087;DHT22;5597;47.588;9.642;2023-04-03T04:24:30;2.50;99.90
11087;DHT22;5597;47.588;9.642;2023-04-03T04:26:56;2.50;99.90
11087;DHT22;5597;47.588;9.642;2023-04-03T04:29:22;2.50;99.90
11087;DHT22;5597;47.588;9.642;2023-04-03T04:31:48;2.50;99.90
11087;DHT22;5597;47.588;9.642;2023-04-03T04:34:13;2.50;99.90
11087;DHT22;5597;47.588;9.642;2023-04-03T04:36:39;2.60;99.90
11087;DHT22;5597;47.588;9.642;2023-04-03T04:39:05;2.60;99.90
11087;DHT22;5597;47.588;9.642;2023-04-03T04:41:32;2.60;99.90
11087;DHT22;5597;47.588;9.642;2023-04-03T04:43:58;2.60;99.90
11087;DHT22;5597;47.588;9.642;2023-04-03T04:46:23;2.60;99.90
11087;DHT22;5597;47.588;9.642;2023-04-03T04:48:49;2.60;99.90
11087;DHT22;5597;47.588;9.642;2023-04-03T04:51:15;2.60;99.90
11087;DHT22;5597;47.588;9.642;2023-04-03T04:53:41;2.60;99.90
11087;DHT22;5597;47.588;9.642;2023-04-03T04:56:08;2.60;99.90
11087;DHT22;5597;47.588;9.642;2023-04-03T04:58:34;2.60;99.90
11087;DHT22;5597;47.588;9.642;2023-04-03T05:01:05;2.70;99.90
11087;DHT22;5597;47.588;9.642;2023-04-03T05:03:32;2.70;99.90
11087;DHT22;5597;47.588;9.642;2023-04-03T05:05:58;2.70;99.90
11087;DHT22;5597;47.588;9.642;2023-04-03T05:08:24;2.70;99.90
11087;DHT22;5597;47.588;9.642;2023-04-03T05:10:50;2.70;99.90
11087;DHT22;5597;47.588;9.642;2023-04-03T05:13:16;2.80;99.90
11087;DHT22;5597;47.588;9.642;2023-04-03T05:15:42;2.80;99.90
11087;DHT22;5597;47.588;9.642;2023-04-03T05:18:07;2.80;99.90
11087;DHT22;5597;47.588;9.642;2023-04-03T05:20:33;2.80;99.90
11087;DHT22;5597;47.588;9.642;2023-04-03T05:22:59;2.80;99.90
11087;DHT22;5597;47.588;9.642;2023-04-03T05:25:31;2.80;99.90
11087;DHT22;5597;47.588;9.642;2023-04-03T05:27:57;2.80;99.90
11087;DHT22;5597;47.588;9.642;2023-04-03T05:30:23;2.80;99.90
11087;DHT22;5597;47.588;9.642;2023-04-03T05:32:52;2.80;99.90
11087;DHT22;5597;47.588;9.642;2023-04-03T05:35:17;2.80;99.90
11087;DHT22;5597;47.588;9.642;2023-04-03T05:37:43;2.80;99.90
11087;DHT22;5597;47.588;9.642;2023-04-03T05:40:09;2.90;99.90
11087;DHT22;5597;47.588;9.642;2023-04-03T05:42:35;2.90;99.90
11087;DHT22;5597;47.588;9.642;2023-04-03T05:45:01;2.90;99.90
11087;DHT22;5597;47.588;9.642;2023-04-03T05:47:26;2.90;99.90
11087;DHT22;5597;47.588;9.642;2023-04-03T05:49:52;2.80;99.90
11087;DHT22;5597;47.588;9.642;2023-04-03T05:52:22;2.90;99.90
11087;DHT22;5597;47.588;9.642;2023-04-03T05:54:49;2.90;99.90
11087;DHT22;5597;47.588;9.642;2023-04-03T05:57:15;2.90;99.90
11087;DHT22;5597;47.588;9.642;2023-04-03T05:59:45;2.90;99.90
11087;DHT22;5597;47.588;9.642;2023-04-03T06:02:16;2.90;99.90
11087;DHT22;5597;47.588;9.642;2023-04-03T06:04:42;2.90;99.90
11087;DHT22;5597;47.588;9.642;2023-04-03T06:07:14;2.90;99.90
11087;DHT22;5597;47.588;9.642;2023-04-03T06:09:41;2.90;99.90
11087;DHT22;5597;47.588;9.642;2023-04-03T06:12:07;3.00;99.90
11087;DHT22;5597;47.588;9.642;2023-04-03T06:14:33;2.90;99.90
11087;DHT22;5597;47.588;9.642;2023-04-03T06:16:59;3.00;99.90
11087;DHT22;5597;47.588;9.642;2023-04-03T06:19:25;3.00;99.90
11087;DHT22;5597;47.588;9.642;2023-04-03T06:21:51;3.00;99.90
11087;DHT22;5597;47.588;9.642;2023-04-03T06:24:18;3.00;99.90
11087;DHT22;5597;47.588;9.642;2023-04-03T06:26:45;3.00;99.90
11087;DHT22;5597;47.588;9.642;2023-04-03T06:29:11;3.10;99.90
11087;DHT22;5597;47.588;9.642;2023-04-03T06:31:36;3.10;99.90
11087;DHT22;5597;47.588;9.642;2023-04-03T06:34:03;3.10;99.90
11087;DHT22;5597;47.588;9.642;2023-04-03T06:36:29;3.10;99.90
11087;DHT22;5597;47.588;9.642;2023-04-03T06:38:55;3.10;99.90
11087;DHT22;5597;47.588;9.642;2023-04-03T06:41:20;3.20;99.90
11087;DHT22;5597;47.588;9.642;2023-04-03T06:43:47;3.20;99.90
11087;DHT22;5597;47.588;9.642;2023-04-03T06:46:16;3.20;99.90
11087;DHT22;5597;47.588;9.642;2023-04-03T06:48:43;3.20;99.90
11087;DHT22;5597;47.588;9.642;2023-04-03T06:51:22;3.20;99.90
11087;DHT22;5597;47.588;9.642;2023-04-03T06:53:50;3.20;99.90
11087;DHT22;5597;47.588;9.642;2023-04-03T06:56:16;3.30;99.90
11087;DHT22;5597;47.588;9.642;2023-04-03T06:58:43;3.30;99.90
11087;DHT22;5597;47.588;9.642;2023-04-03T07:01:10;3.30;99.90
11087;DHT22;5597;47.588;9.642;2023-04-03T07:03:38;3.40;99.90
11087;DHT22;5597;47.588;9.642;2023-04-03T07:06:04;3.40;99.90
11087;DHT22;5597;47.588;9.642;2023-04-03T07:08:31;3.40;99.90
11087;DHT22;5597;47.588;9.642;2023-04-03T07:10:57;3.40;99.90
11087;DHT22;5597;47.588;9.642;2023-04-03T07:13:23;3.50;99.90
11087;DHT22;5597;47.588;9.642;2023-04-03T07:15:49;3.50;99.90
11087;DHT22;5597;47.588;9.642;2023-04-03T07:18:25;3.50;99.90
11087;DHT22;5597;47.588;9.642;2023-04-03T07:20:51;3.60;99.90
11087;DHT22;5597;47.588;9.642;2023-04-03T07:23:18;3.60;99.90
11087;DHT22;5597;47.588;9.642;2023-04-03T07:25:48;3.60;99.90
11087;DHT22;5597;47.588;9.642;2023-04-03T07:28:15;3.70;99.90
11087;DHT22;5597;47.588;9.642;2023-04-03T07:30:46;3.70;99.90
11087;DHT22;5597;47.588;9.642;2023-04-03T07:33:14;3.70;99.90
11087;DHT22;5597;47.588;9.642;2023-04-03T07:35:41;3.70;99.90
11087;DHT22;5597;47.588;9.642;2023-04-03T07:38:07;3.80;99.90
11087;DHT22;5597;47.588;9.642;2023-04-03T07:40:33;3.90;99.90
11087;DHT22;5597;47.588;9.642;2023-04-03T07:43:03;3.90;99.90
11087;DHT22;5597;47.588;9.642;2023-04-03T07:45:29;3.90;99.90
11087;DHT22;5597;47.588;9.642;2023-04-03T07:47:58;3.90;99.90
11087;DHT22;5597;47.588;9.642;2023-04-03T07:50:24;3.90;99.90
11087;DHT22;5597;47.588;9.642;2023-04-03T07:52:50;3.90;99.90
11087;DHT22;5597;47.588;9.642;2023-04-03T07:55:16;3.90;99.90
11087;DHT22;5597;47.588;9.642;2023-04-03T07:57:42;3.90;99.90
11087;DHT22;5597;47.588;9.642;2023-04-03T08:00:08;4.00;99.90
11087;DHT22;5597;47.588;9.642;2023-04-03T08:02:35;4.10;99.90
11087;DHT22;5597;47.588;9.642;2023-04-03T08:05:00;4.10;99.90
11087;DHT22;5597;47.588;9.642;2023-04-03T08:07:26;4.10;99.90
11087;DHT22;5597;47.588;9.642;2023-04-03T08:09:52;4.20;99.90
11087;DHT22;5597;47.588;9.642;2023-04-03T08:12:18;4.20;99.90
11087;DHT22;5597;47.588;9.642;2023-04-03T08:14:44;4.30;99.90
11087;DHT22;5597;47.588;9.642;2023-04-03T08:17:10;4.40;99.90
11087;DHT22;5597;47.588;9.642;2023-04-03T08:19:38;4.40;99.90
11087;DHT22;5597;47.588;9.642;2023-04-03T08:22:04;4.40;99.90
11087;DHT22;5597;47.588;9.642;2023-04-03T08:24:31;4.50;99.90
11087;DHT22;5597;47.588;9.642;2023-04-03T08:26:57;4.60;99.90
11087;DHT22;5597;47.588;9.642;2023-04-03T08:29:24;4.60;99.90
11087;DHT22;5597;47.588;9.642;2023-04-03T08:31:50;4.60;99.90
11087;DHT22;5597;47.588;9.642;2023-04-03T08:34:16;4.50;99.90
11087;DHT22;5597;47.588;9.642;2023-04-03T08:36:43;4.50;99.90
11087;DHT22;5597;47.588;9.642;2023-04-03T08:39:09;4.50;99.90
11087;DHT22;5597;47.588;9.642;2023-04-03T08:41:40;4.50;99.90
11087;DHT22;5597;47.588;9.642;2023-04-03T08:49:42;4.70;99.90
11087;DHT22;5597;47.588;9.642;2023-04-03T08:53:02;4.80;99.90
11087;DHT22;5597;47.588;9.642;2023-04-03T08:55:39;4.80;99.90
11087;DHT22;5597;47.588;9.642;2023-04-03T08:58:09;4.80;99.90
11087;DHT22;5597;47.588;9.642;2023-04-03T09:00:55;4.90;99.90
11087;DHT22;5597;47.588;9.642;2023-04-03T09:03:23;5.00;99.90
11087;DHT22;5597;47.588;9.642;2023-04-03T09:06:16;5.10;99.90
11087;DHT22;5597;47.588;9.642;2023-04-03T09:17:28;5.30;99.90
11087;DHT22;5597;47.588;9.642;2023-04-03T09:22:54;5.20;99.90
11087;DHT22;5597;47.588;9.642;2023-04-03T09:25:35;5.30;99.90
11087;DHT22;5597;47.588;9.642;2023-04-03T09:28:03;5.30;99.90
11087;DHT22;5597;47.588;9.642;2023-04-03T09:30:29;5.40;99.90
11087;DHT22;5597;47.588;9.642;2023-04-03T09:32:56;5.50;99.90
11087;DHT22;5597;47.588;9.642;2023-04-03T09:35:25;5.60;99.90
11087;DHT22;5597;47.588;9.642;2023-04-03T09:37:54;5.70;99.90
11087;DHT22;5597;47.588;9.642;2023-04-03T09:42:53;6.00;99.90
11087;DHT22;5597;47.588;9.642;2023-04-03T09:45:25;6.00;99.90
11087;DHT22;5597;47.588;9.642;2023-04-03T09:53:40;6.10;99.90
11087;DHT22;5597;47.588;9.642;2023-04-03T09:58:43;6.20;99.90
11087;DHT22;5597;47.588;9.642;2023-04-03T10:01:32;6.10;99.90
11087;DHT22;5597;47.588;9.642;2023-04-03T10:04:08;6.10;99.90
11087;DHT22;5597;47.588;9.642;2023-04-03T10:06:43;6.10;99.90
11087;DHT22;5597;47.588;9.642;2023-04-03T10:09:29;6.20;99.90
11087;DHT22;5597;47.588;9.642;2023-04-03T10:11:59;6.30;99.90
11087;DHT22;5597;47.588;9.642;2023-04-03T10:14:28;6.30;99.90
11087;DHT22;5597;47.588;9.642;2023-04-03T10:17:14;6.40;99.90
11087;DHT22;5597;47.588;9.642;2023-04-03T10:20:04;6.50;99.90
11087;DHT22;5597;47.588;9.642;2023-04-03T10:28:05;6.90;99.90
11087;DHT22;5597;47.588;9.642;2023-04-03T10:31:02;6.90;99.90
11087;DHT22;5597;47.588;9.642;2023-04-03T10:33:56;6.90;99.90
11087;DHT22;5597;47.588;9.642;2023-04-03T10:44:58;7.20;99.90
11087;DHT22;5597;47.588;9.642;2023-04-03T10:53:32;7.20;99.90
11087;DHT22;5597;47.588;9.642;2023-04-03T11:01:46;7.40;99.90
11087;DHT22;5597;47.588;9.642;2023-04-03T11:04:15;7.50;99.90
11087;DHT22;5597;47.588;9.642;2023-04-03T11:06:47;7.50;99.90
11087;DHT22;5597;47.588;9.642;2023-04-03T11:09:25;7.50;99.90
11087;DHT22;5597;47.588;9.642;2023-04-03T11:12:00;7.50;99.90
11087;DHT22;5597;47.588;9.642;2023-04-03T11:14:30;7.70;99.90
11087;DHT22;5597;47.588;9.642;2023-04-03T11:17:24;8.00;99.90
11087;DHT22;5597;47.588;9.642;2023-04-03T11:20:08;8.10;99.90
11087;DHT22;5597;47.588;9.642;2023-04-03T11:22:41;8.10;99.90
11087;DHT22;5597;47.588;9.642;2023-04-03T11:25:17;8.30;99.90
11087;DHT22;5597;47.588;9.642;2023-04-03T11:28:06;8.40;99.90
11087;DHT22;5597;47.588;9.642;2023-04-03T11:36:12;8.60;99.90
11087;DHT22;5597;47.588;9.642;2023-04-03T11:38:43;8.60;99.90
11087;DHT22;5597;47.588;9.642;2023-04-03T11:41:13;8.50;99.90
11087;DHT22;5597;47.588;9.642;2023-04-03T11:43:59;8.30;99.90
11087;DHT22;5597;47.588;9.642;2023-04-03T11:46:57;8.10;99.90
11087;DHT22;5597;47.588;9.642;2023-04-03T12:05:54;9.00;99.90
11087;DHT22;5597;47.588;9.642;2023-04-03T12:08:26;8.90;99.90
11087;DHT22;5597;47.588;9.642;2023-04-03T12:13:37;8.70;99.90
11087;DHT22;5597;47.588;9.642;2023-04-03T12:16:47;8.70;99.90
11087;DHT22;5597;47.588;9.642;2023-04-03T12:24:26;8.80;99.90
11087;DHT22;5597;47.588;9.642;2023-04-03T12:27:17;8.80;99.90
11087;DHT22;5597;47.588;9.642;2023-04-03T12:51:18;8.40;99.90
11087;DHT22;5597;47.588;9.642;2023-04-03T12:53:45;8.70;99.90
11087;DHT22;5597;47.588;9.642;2023-04-03T12:56:30;8.80;99.90
11087;DHT22;5597;47.588;9.642;2023-04-03T12:59:13;8.60;99.90
11087;DHT22;5597;47.588;9.642;2023-04-03T13:01:40;8.40;99.90
11087;DHT22;5597;47.588;9.642;2023-04-03T13:04:06;8.20;99.90
11087;DHT22;5597;47.588;9.642;2023-04-03T13:06:39;8.20;99.90
11087;DHT22;5597;47.588;9.642;2023-04-03T13:09:32;8.20;99.90
11087;DHT22;5597;47.588;9.642;2023-04-03T13:12:01;8.10;99.90
11087;DHT22;5597;47.588;9.642;2023-04-03T13:14:29;8.00;99.90
11087;DHT22;5597;47.588;9.642;2023-04-03T13:19:26;7.80;99.90
11087;DHT22;5597;47.588;9.642;2023-04-03T13:24:49;7.60;99.90
11087;DHT22;5597;47.588;9.642;2023-04-03T13:27:16;7.70;99.90
11087;DHT22;5597;47.588;9.642;2023-04-03T13:29:43;7.80;99.90
11087;DHT22;5597;47.588;9.642;2023-04-03T13:32:21;7.90;99.90
11087;DHT22;5597;47.588;9.642;2023-04-03T13:34:48;8.00;99.90
11087;DHT22;5597;47.588;9.642;2023-04-03T13:42:28;7.90;99.90
11087;DHT22;5597;47.588;9.642;2023-04-03T13:45:21;8.00;99.90
11087;DHT22;5597;47.588;9.642;2023-04-03T13:47:51;8.20;99.90
11087;DHT22;5597;47.588;9.642;2023-04-03T13:50:21;8.20;99.90
11087;DHT22;5597;47.588;9.642;2023-04-03T13:52:54;8.20;99.90
11087;DHT22;5597;47.588;9.642;2023-04-03T13:57:59;8.00;99.90
11087;DHT22;5597;47.588;9.642;2023-04-03T14:00:39;8.20;99.90
11087;DHT22;5597;47.588;9.642;2023-04-03T14:06:05;8.30;99.90
11087;DHT22;5597;47.588;9.642;2023-04-03T14:08:32;8.10;99.90
11087;DHT22;5597;47.588;9.642;2023-04-03T14:10:58;8.00;99.90
11087;DHT22;5597;47.588;9.642;2023-04-03T14:13:23;7.90;99.90
11087;DHT22;5597;47.588;9.642;2023-04-03T14:15:50;7.90;99.90
11087;DHT22;5597;47.588;9.642;2023-04-03T14:18:19;7.80;99.90
11087;DHT22;5597;47.588;9.642;2023-04-03T14:20:46;7.70;99.90
11087;DHT22;5597;47.588;9.642;2023-04-03T14:23:12;7.60;99.90
11087;DHT22;5597;47.588;9.642;2023-04-03T14:25:39;7.60;99.90
11087;DHT22;5597;47.588;9.642;2023-04-03T14:28:18;7.60;99.90
11087;DHT22;5597;47.588;9.642;2023-04-03T14:30:45;7.70;99.90
11087;DHT22;5597;47.588;9.642;2023-04-03T14:33:18;7.70;99.90
11087;DHT22;5597;47.588;9.642;2023-04-03T14:35:44;7.60;99.90
11087;DHT22;5597;47.588;9.642;2023-04-03T14:38:30;7.60;99.90
11087;DHT22;5597;47.588;9.642;2023-04-03T14:40:59;7.60;99.90
11087;DHT22;5597;47.588;9.642;2023-04-03T14:43:25;7.60;99.90
11087;DHT22;5597;47.588;9.642;2023-04-03T14:45:52;7.50;99.90
11087;DHT22;5597;47.588;9.642;2023-04-03T14:48:23;7.40;99.90
11087;DHT22;5597;47.588;9.642;2023-04-03T14:50:51;7.30;99.90
11087;DHT22;5597;47.588;9.642;2023-04-03T14:53:17;7.30;99.90
11087;DHT22;5597;47.588;9.642;2023-04-03T14:55:48;7.20;99.90
11087;DHT22;5597;47.588;9.642;2023-04-03T14:58:16;7.10;99.90
11087;DHT22;5597;47.588;9.642;2023-04-03T15:00:43;7.10;99.90
11087;DHT22;5597;47.588;9.642;2023-04-03T15:03:20;7.00;99.90
11087;DHT22;5597;47.588;9.642;2023-04-03T15:05:48;6.90;99.90
11087;DHT22;5597;47.588;9.642;2023-04-03T15:08:32;6.80;99.90
11087;DHT22;5597;47.588;9.642;2023-04-03T15:10:58;6.80;99.90
11087;DHT22;5597;47.588;9.642;2023-04-03T15:13:24;6.80;99.90
11087;DHT22;5597;47.588;9.642;2023-04-03T15:15:51;6.80;99.90
11087;DHT22;5597;47.588;9.642;2023-04-03T15:18:20;6.80;99.90
11087;DHT22;5597;47.588;9.642;2023-04-03T15:20:46;6.70;99.90
11087;DHT22;5597;47.588;9.642;2023-04-03T15:23:14;6.60;99.90
11087;DHT22;5597;47.588;9.642;2023-04-03T15:25:45;6.60;99.90
11087;DHT22;5597;47.588;9.642;2023-04-03T15:28:39;6.50;99.90
11087;DHT22;5597;47.588;9.642;2023-04-03T15:31:05;6.50;99.90
11087;DHT22;5597;47.588;9.642;2023-04-03T15:33:32;6.50;99.90
11087;DHT22;5597;47.588;9.642;2023-04-03T15:35:58;6.50;99.90
11087;DHT22;5597;47.588;9.642;2023-04-03T15:38:24;6.50;99.90
11087;DHT22;5597;47.588;9.642;2023-04-03T15:40:50;6.50;99.90
11087;DHT22;5597;47.588;9.642;2023-04-03T15:43:17;6.50;99.90
11087;DHT22;5597;47.588;9.642;2023-04-03T15:45:43;6.50;99.90
11087;DHT22;5597;47.588;9.642;2023-04-03T15:48:12;6.60;99.90
11087;DHT22;5597;47.588;9.642;2023-04-03T15:50:38;6.60;99.90
11087;DHT22;5597;47.588;9.642;2023-04-03T15:53:05;6.60;99.90
11087;DHT22;5597;47.588;9.642;2023-04-03T15:55:33;6.60;99.90
11087;DHT22;5597;47.588;9.642;2023-04-03T15:57:59;6.50;99.90
11087;DHT22;5597;47.588;9.642;2023-04-03T16:00:25;6.30;99.90
11087;DHT22;5597;47.588;9.642;2023-04-03T16:03:16;6.20;99.90
11087;DHT22;5597;47.588;9.642;2023-04-03T16:05:40;6.10;99.90
11087;DHT22;5597;47.588;9.642;2023-04-03T16:08:07;6.10;99.90
11087;DHT22;5597;47.588;9.642;2023-04-03T16:10:36;6.00;99.90
11087;DHT22;5597;47.588;9.642;2023-04-03T16:13:03;6.00;99.90
11087;DHT22;5597;47.588;9.642;2023-04-03T16:15:29;5.90;99.90
11087;DHT22;5597;47.588;9.642;2023-04-03T16:17:57;5.90;99.90
11087;DHT22;5597;47.588;9.642;2023-04-03T16:20:24;5.80;99.90
11087;DHT22;5597;47.588;9.642;2023-04-03T16:22:50;5.80;99.90
11087;DHT22;5597;47.588;9.642;2023-04-03T16:25:16;5.70;99.90
11087;DHT22;5597;47.588;9.642;2023-04-03T16:27:42;5.70;99.90
11087;DHT22;5597;47.588;9.642;2023-04-03T16:30:09;5.70;99.90
11087;DHT22;5597;47.588;9.642;2023-04-03T16:32:35;5.70;99.90
11087;DHT22;5597;47.588;9.642;2023-04-03T16:35:02;5.70;99.90
11087;DHT22;5597;47.588;9.642;2023-04-03T16:37:28;5.70;99.90
11087;DHT22;5597;47.588;9.642;2023-04-03T16:39:53;5.60;99.90
11087;DHT22;5597;47.588;9.642;2023-04-03T16:42:19;5.50;99.90
11087;DHT22;5597;47.588;9.642;2023-04-03T16:44:45;5.50;99.90
11087;DHT22;5597;47.588;9.642;2023-04-03T16:47:10;5.50;99.90
11087;DHT22;5597;47.588;9.642;2023-04-03T16:49:38;5.50;99.90
11087;DHT22;5597;47.588;9.642;2023-04-03T16:52:04;5.40;99.90
11087;DHT22;5597;47.588;9.642;2023-04-03T16:54:31;5.40;99.90
11087;DHT22;5597;47.588;9.642;2023-04-03T16:56:57;5.40;99.90
11087;DHT22;5597;47.588;9.642;2023-04-03T16:59:23;5.40;99.90
11087;DHT22;5597;47.588;9.642;2023-04-03T17:01:49;5.40;99.90
11087;DHT22;5597;47.588;9.642;2023-04-03T17:04:15;5.40;99.90
11087;DHT22;5597;47.588;9.642;2023-04-03T17:06:40;5.40;99.90
11087;DHT22;5597;47.588;9.642;2023-04-03T17:09:07;5.30;99.90
11087;DHT22;5597;47.588;9.642;2023-04-03T17:11:33;5.30;99.90
11087;DHT22;5597;47.588;9.642;2023-04-03T17:13:59;5.30;99.90
11087;DHT22;5597;47.588;9.642;2023-04-03T17:16:25;5.20;99.90
11087;DHT22;5597;47.588;9.642;2023-04-03T17:18:52;5.20;99.90
11087;DHT22;5597;47.588;9.642;2023-04-03T17:21:19;5.20;99.90
11087;DHT22;5597;47.588;9.642;2023-04-03T17:23:49;5.10;99.90
11087;DHT22;5597;47.588;9.642;2023-04-03T17:26:17;5.10;99.90
11087;DHT22;5597;47.588;9.642;2023-04-03T17:28:42;5.00;99.90
11087;DHT22;5597;47.588;9.642;2023-04-03T17:31:08;5.00;99.90
11087;DHT22;5597;47.588;9.642;2023-04-03T17:33:34;5.00;99.90
11087;DHT22;5597;47.588;9.642;2023-04-03T17:36:01;5.00;99.90
11087;DHT22;5597;47.588;9.642;2023-04-03T17:38:29;4.90;99.90
11087;DHT22;5597;47.588;9.642;2023-04-03T17:41:00;4.90;99.90
11087;DHT22;5597;47.588;9.642;2023-04-03T17:43:26;4.90;99.90
11087;DHT22;5597;47.588;9.642;2023-04-03T17:45:52;4.80;99.90
11087;DHT22;5597;47.588;9.642;2023-04-03T17:48:18;4.80;99.90
11087;DHT22;5597;47.588;9.642;2023-04-03T17:50:47;4.80;99.90
11087;DHT22;5597;47.588;9.642;2023-04-03T17:53:13;4.80;99.90
11087;DHT22;5597;47.588;9.642;2023-04-03T17:55:39;4.80;99.90
11087;DHT22;5597;47.588;9.642;2023-04-03T17:58:05;4.80;99.90
11087;DHT22;5597;47.588;9.642;2023-04-03T18:00:31;4.70;99.90
11087;DHT22;5597;47.588;9.642;2023-04-03T18:02:57;4.70;99.90
11087;DHT22;5597;47.588;9.642;2023-04-03T18:05:27;4.70;99.90
11087;DHT22;5597;47.588;9.642;2023-04-03T18:07:53;4.60;99.90
11087;DHT22;5597;47.588;9.642;2023-04-03T18:10:19;4.60;99.90
11087;DHT22;5597;47.588;9.642;2023-04-03T18:12:48;4.60;99.90
11087;DHT22;5597;47.588;9.642;2023-04-03T18:15:14;4.50;99.90
11087;DHT22;5597;47.588;9.642;2023-04-03T18:17:42;4.50;99.90